Lake Tahoe Airport
KTVL : now visible

Airfield :











YOU CAN JOIN US ON...

 
LOGIN :

Register | Disclaimer

   EN    FR    IT 

 









Legend :    VFR   Marginal VFR   IFR   Intensive IFR   Very Intensive IFR
Visi :
Ceiling :
>= 8 km
>= 3000ft
5 to 8 km
1000 to 3000 ft
1500m to 5 km
500 to 1000 ft
800 to 1500m
200 to 500 ft
< 800m
< 200 ft
Symbols :   Thunderstorms  Fog  Heavy snow  Heavy precipitations  Wind > 20 kt






- Airport Elevation : 6264 ft
- IATA code : TVL


KTVL - Lake Tahoe

CURRENT METAR :
  • 190753Z AUTO 18014G22KT 10SM BKN042 OVC050 13/00 A3009 RMK AO2 PRESFR SLP134 T01280000 402000122

EXPIRED METARs :
  • 190653Z AUTO 17010G14KT 130V200 10SM OVC050 13/M02 A3012 RMK AO2 SLP144 T01281017
  • 190553Z AUTO 19014G22KT 10SM OVC055 12/M03 A3014 RMK AO2 PK WND 18026/0507 SLP152 T01221033 10172 20122 50003

TAF KTVL
Valid from the 19 at 06:00 until the 20 at 06:00 UTC


190520Z 1906/2006 18010G25KT P6SM FEW060 SCT150 WS020/23035KT
FM191000 19012G20KT P6SM -SHRA FEW035 BKN070 WS020/24045KT
FM191500 21013G22KT P6SM VCSH SCT035 BKN070
FM192100 25011G19KT P6SM FEW150
KZOA FIR / North America



MET'MAP, your aeronautical weather chart ! - Copyright ORBIFLY December 2007 - Disclaimer

ORBIFLY MET'MAP TEAM :

Programming & Development : Alexandra Zaïnal
Concept & original design : Baudouin d'Aumeries
Assistance for programming : Marc-Olivier Méhu
Technical & hardware support : Manuel Goepfert

Contact : metmap@orbifly.com




SOURCES & CREDITS :

   NOAA       Earth
Advisory